Flight Track Log - Related Links

Times and Time Zones

All times are in EDT time to prevent confusion due to time zone crossing. See the N6056Y flight status page for this flight to view local times or setup timezone preferences in your user account.

Time Position Orientation Groundspeed Altitude Reporting Facility
EDT Latitude Longitude Course Direction KTS MPH feet Rate Location/Type
Sat 06:13:00 PM 34.6773 -78.6257 14° North  Level Estimated
Sat 06:14:00 PM 34.7142 -78.6144 14° North  Level Estimated
Sat 06:15:00 PM 34.7511 -78.6030 14° North  Level Estimated
Sat 06:15:29 PM 34.7647 -78.5728 14° North 155 178 10,700  Level Washington Center
Sat 06:16:00 PM 34.7881 -78.5916 14° North  Level Estimated
Sat 06:16:30 PM 34.7983 -78.5664 North 170 196 10,900  Level Washington Center
Sat 06:17:00 PM 34.8250 -78.5803 14° North  Level Estimated
Sat 06:17:30 PM 34.8361 -78.5603 North 157 181 11,200  Level Washington Center
Sat 06:18:00 PM 34.8619 -78.5689 14° North  Level Estimated
Sat 06:18:28 PM 34.8781 -78.5492 12° North 152 175 11,400  Level Washington Center
Sat 06:19:00 PM 34.8988 -78.5575 14° North  Level Estimated
Sat 06:19:28 PM 34.9200 -78.5431 North 147 169 11,500  Level Washington Center
Sat 06:20:00 PM 34.9355 -78.5462 14° North  Level Estimated
Sat 06:20:30 PM 34.9661 -78.5369 North 147 169 11,500  Level Washington Center
Sat 06:21:00 PM 34.9721 -78.5348 14° North  Level Estimated
Sat 06:21:28 PM 35.0119 -78.5311 North 158 182 11,500  Level Washington Center
Sat 06:22:29 PM 35.0603 -78.5228 North 163 188 11,500  Level Washington Center
Sat 06:23:30 PM 35.1064 -78.5167 North 168 193 11,500  Level Washington Center
Sat 06:24:30 PM 35.1544 -78.5108 North 168 193 11,500  Level Washington Center
Sat 06:25:28 PM 35.2025 -78.5050 North 168 193 11,500  Level Washington Center
Sat 06:26:28 PM 35.2506 -78.4992 North 168 193 11,500  Level Washington Center
Sat 06:27:30 PM 35.2967 -78.4906 North 162 186 11,500  Level Washington Center
Sat 06:28:30 PM 35.3428 -78.4872 North 162 186 11,500  Level Washington Center
Sat 06:29:01 PM 35.3681 -78.4831 North 165 190 11,500  Level Washington Center
Sat 06:30:25 PM 35.4369 -78.4778 North 170 196 11,500  Level Washington Center
Sat 06:31:26 PM 35.4828 -78.4744 North 167 192 11,500  Level Washington Center
Sat 06:32:27 PM 35.5269 -78.4658 North 166 191 11,500  Level Washington Center
Sat 06:33:28 PM 35.5750 -78.4625 North 170 196 11,500  Level Washington Center
Sat 06:34:28 PM 35.6294 -78.4542 North 162 186 11,500  Level Washington Center
Sat 06:35:23 PM 35.6650 -78.4503 North 174 200 11,500  Level Washington Center
Sat 06:36:17 PM 35.7089 -78.4442 North 172 198 11,500  Level Washington Center
Sat 06:37:18 PM 35.7569 -78.4433 North 169 194 11,500  Level Washington Center
Sat 06:38:19 PM 35.8031 -78.4400 North 168 193 11,500  Level Washington Center
Sat 06:39:25 PM 35.8572 -78.4367 North 171 197 11,500  Level Washington Center
Sat 06:40:20 PM 35.9014 -78.4306 North 170 196 11,500  Level Washington Center
Sat 06:41:24 PM 35.9514 -78.4325 358° North 167 192 11,500  Level Washington Center
Sat 06:42:26 PM 35.9972 -78.4314 North 166 191 11,500  Level Washington Center
Sat 06:43:39 PM 36.0536 -78.4308 360° North 166 191 11,500  Level Washington Center
Sat 06:44:34 PM 36.0975 -78.4300 North 168 193 11,500  Level Washington Center
Sat 06:45:40 PM 36.1475 -78.4267 North 169 194 11,500 -100 Level Washington Center
Sat 06:46:34 PM 36.1914 -78.4281 359° North 168 193 11,300 -220 Descending Washington Center
Sat 06:47:29 PM 36.2372 -78.4247 North 190 219 11,100 -155 Descending Washington Center
Sat 06:48:30 PM 36.2833 -78.4239 North 184 212 11,000 -252 Descending Washington Center
Sat 06:49:28 PM 36.3375 -78.4231 North 174 200 10,600 -454 Descending Washington Center
Sat 06:50:29 PM 36.3856 -78.4197 North 183 211 10,100 -750 Descending Washington Center
Sat 06:51:28 PM 36.4458 -78.4269 354° North 183 211 9,100 -1,000 Descending Washington Center
Sat 06:52:29 PM 36.4975 -78.4547 337° Northwest 188 216 8,100 -694 Descending Washington Center
Sat 06:53:29 PM 36.5492 -78.4697 347° North 188 216 7,700 -353 Descending Washington Center
Sat 06:54:28 PM 36.5992 -78.4742 356° North 183 211 7,400 -189 Descending Washington Center
Sat 06:55:04 PM 36.6283 -78.4753 358° North 181 208 7,400  Level Washington Center
Sat 06:56:30 PM 36.6953 -78.4672 North 177 204 7,400  Level Washington Center
Sat 06:57:30 PM 36.7433 -78.4639 North 177 204 7,400  Level Washington Center
Sat 06:58:28 PM 36.7894 -78.4578 North 177 204 7,400  Level Washington Center
Sat 06:59:28 PM 36.8436 -78.4597 358° North 177 204 7,400  Level Washington Center
Sat 07:00:29 PM 36.8897 -78.4564 North 177 204 7,400  Level Washington Center
Sat 07:01:29 PM 36.9439 -78.4583 358° North 177 204 7,400  Level Washington Center
Sat 07:02:30 PM 36.9981 -78.4631 356° North 177 204 7,400  Level Washington Center
Sat 07:03:28 PM 37.0481 -78.4569 North 177 204 7,400  Level Washington Center
Sat 07:04:30 PM 37.0986 -78.4458 10° North 177 204 7,400  Level Washington Center
Sat 07:05:28 PM 37.1444 -78.4422 North 177 204 7,400  Level Washington Center
Sat 07:06:29 PM 37.1947 -78.4364 North 177 204 7,400  Level Washington Center
Sat 07:07:28 PM 37.2450 -78.4278 North 182 209 7,400  Level Washington Center
Sat 07:08:28 PM 37.3014 -78.4194 North 182 209 7,400  Level Washington Center
Sat 07:09:29 PM 37.3517 -78.4133 North 182 209 7,400  Level Washington Center
Sat 07:10:30 PM 37.4019 -78.4050 North 182 209 7,400  Level Washington Center
Sat 07:11:30 PM 37.4542 -78.3989 North 182 209 7,400  Level Washington Center
Sat 07:12:28 PM 37.4983 -78.3875 12° North 182 209 7,400  Level Washington Center
Sat 07:13:28 PM 37.5528 -78.3817 North 182 209 7,400 -98 Level Washington Center
Sat 07:14:30 PM 37.6028 -78.3756 North 182 209 7,200 -250 Descending Washington Center
Sat 07:15:28 PM 37.6614 -78.3672 North 187 215 6,900 -407 Descending Washington Center
Sat 07:16:28 PM 37.7158 -78.3614 North 187 215 6,400 -397 Descending Washington Center
Sat 07:17:29 PM 37.7722 -78.3531 North 193 222 6,100 -246 Descending Washington Center
Sat 07:18:30 PM 37.8247 -78.3469 North 193 222 5,900 -252 Descending Washington Center
Sat 07:19:28 PM 37.8747 -78.3408 North 199 229 5,600 -254 Descending Washington Center
Sat 07:20:28 PM 37.9272 -78.3350 North 199 229 5,400 -98 Descending Washington Center
Sat 07:21:30 PM 37.9794 -78.3289 North 199 229 5,400  Level Washington Center
Sat 07:23:37 PM 38.0833 -78.3167 North 184 212 5,400  Level Potomac TRACON
Sat 07:24:37 PM 38.1333 -78.3000 15° North 185 213 5,400  Level Potomac TRACON
Sat 07:25:43 PM 38.2000 -78.3000 360° North 184 212 5,400 150 Level Potomac TRACON
Sat 07:26:37 PM 38.2333 -78.2833 21° North 170 196 5,700 316 Climbing Potomac TRACON
Sat 07:27:37 PM 38.2833 -78.2833 360° North 169 194 6,000 250 Climbing Potomac TRACON
Sat 07:28:37 PM 38.3333 -78.2667 15° North 171 197 6,200 286 Climbing Potomac TRACON
Sat 07:29:43 PM 38.3833 -78.2500 15° North 166 191 6,600 400 Climbing Potomac TRACON
Sat 07:30:37 PM 38.4333 -78.2500 360° North 161 185 7,000 389 Climbing Potomac TRACON
Sat 07:31:31 PM 38.4667 -78.2500 360° North 159 183 7,300 250 Climbing Potomac TRACON
Sat 07:32:37 PM 38.5167 -78.2500 360° North 158 182 7,500 95 Climbing Potomac TRACON
Sat 07:33:37 PM 38.5667 -78.2333 15° North 170 196 7,500  Level Potomac TRACON
Sat 07:34:31 PM 38.6000 -78.2333 360° North 176 203 7,500  Level Potomac TRACON
Sat 07:35:31 PM 38.6500 -78.2333 360° North 175 201 7,500  Level Potomac TRACON
Sat 07:36:37 PM 38.7000 -78.2167 15° North 178 205 7,500  Level Potomac TRACON
Sat 07:37:37 PM 38.7500 -78.2167 360° North 180 207 7,500  Level Potomac TRACON
Sat 07:38:37 PM 38.8000 -78.2000 15° North 181 208 7,500  Level Potomac TRACON
Sat 07:39:37 PM 38.8500 -78.2000 360° North 179 206 7,500 50 Level Potomac TRACON
Sat 07:40:37 PM 38.9000 -78.1833 15° North 181 208 7,600  Climbing Potomac TRACON
Sat 07:41:37 PM 38.9500 -78.1833 360° North 179 206 7,500  Descending Potomac TRACON
Sat 07:42:37 PM 39.0000 -78.1667 15° North 182 209 7,600 53 Climbing Potomac TRACON
Sat 07:43:31 PM 39.0333 -78.1667 360° North 182 209 7,600  Level Potomac TRACON
Sat 07:44:37 PM 39.1000 -78.1333 21° North 184 212 7,600  Level Potomac TRACON
Sat 07:45:31 PM 39.1333 -78.1000 38° Northeast 184 212 7,600  Level Potomac TRACON
Sat 07:46:31 PM 39.1667 -78.0500 49° Northeast 182 209 7,600  Level Potomac TRACON
Sat 07:47:31 PM 39.1833 -78.0000 67° East 184 212 7,600 -200 Level Potomac TRACON
Sat 07:48:31 PM 39.2167 -77.9333 57° Northeast 188 216 7,200 -273 Descending Potomac TRACON
Sat 07:49:43 PM 39.2333 -77.8667 72° East 192 221 7,000 -95 Descending Potomac TRACON
Sat 07:50:37 PM 39.2667 -77.8167 49° Northeast 189 217 7,000 -53 Level Potomac TRACON
Sat 07:51:37 PM 39.2833 -77.7667 67° East 185 213 6,900 -250 Descending Potomac TRACON
Sat 07:52:37 PM 39.3167 -77.7000 57° Northeast 187 215 6,500 -333 Descending Potomac TRACON
Sat 07:53:43 PM 39.3333 -77.6333 72° East 193 222 6,200 -333 Descending Potomac TRACON
Sat 07:54:43 PM 39.3667 -77.5667 57° Northeast 192 221 5,800 -400 Descending Potomac TRACON
Sat 07:55:43 PM 39.3833 -77.5000 72° East 192 221 5,400 -400 Descending Potomac TRACON
Sat 07:56:43 PM 39.4167 -77.4333 57° Northeast 192 221 5,000 -421 Descending Potomac TRACON
Sat 07:57:37 PM 39.4333 -77.3833 67° East 199 229 4,600 -421 Descending Potomac TRACON
Sat 07:58:37 PM 39.4667 -77.3167 57° Northeast 200 230 4,200 -400 Descending Potomac TRACON
Sat 08:00:00 PM 39.5000 -77.2491 90° East  Level FlightAware Approximate
Sat 08:07:00 PM 39.6000 -77.0000 57° Northeast  Level FlightAware Approximate
Sat 08:08:00 PM 39.6083 -77.0077 57° Northeast  Level Estimated
Sat 08:09:00 PM 39.6083 -77.0077 57° Northeast  Level Estimated
Sat 08:10:00 PM 39.6083 -77.0077 57° Northeast  Level Estimated
Sat 08:11:00 PM 39.6083 -77.0077 57° Northeast  Level Estimated
Sat 08:12:00 PM 39.6083 -77.0077 57° Northeast  Level Estimated
Sat 08:13:00 PM 39.6083 -77.0077 57° Northeast  Level Estimated
Sat 08:14:00 PM 39.6083 -77.0077 57° Northeast  Level Estimated
Sat 08:15:00 PM 39.6083 -77.0077 57° Northeast  Level Estimated
Sat 08:16:00 PM 39.6083 -77.0077 57° Northeast  Level Estimated
Sat 08:17:00 PM 39.6083 -77.0077 57° Northeast  Level Estimated
Sat 08:18:00 PM 39.6083 -77.0077 57° Northeast  Level Estimated
Sat 08:19:00 PM 39.6083 -77.0077 57° Northeast  Level Estimated
Sat 08:20:00 PM 39.6083 -77.0077 57° Northeast  Level Estimated
Sat 08:21:00 PM 39.6083 -77.0077 57° Northeast  Level Estimated
Sat 08:22:00 PM 39.6083 -77.0077 57° Northeast  Level Estimated
Sat 08:23:00 PM 39.6083 -77.0077 57° Northeast  Level Estimated
Sat 08:24:00 PM 39.6083 -77.0077 57° Northeast  Level Estimated
Sat 08:25:00 PM 39.6083 -77.0077 57° Northeast  Level Estimated
Sat 08:26:00 PM 39.6083 -77.0077 57° Northeast  Level Estimated
Sat 08:27:00 PM 39.6083 -77.0077 57° Northeast  Level Estimated
Sat 08:28:00 PM 39.6083 -77.0077 57° Northeast  Level Estimated
Sat 08:29:00 PM 39.6083 -77.0077 57° Northeast  Level Estimated

Login

Don't have an account? Register now (free) for customized features, flight alerts, and more!